sensor_id;sensor_type;location;lat;lon;timestamp;temperature;humidity
9385;DHT22;4732;49.340;10.886;2023-02-15T04:02:23;-1.10;99.90
9385;DHT22;4732;49.340;10.886;2023-02-15T04:04:49;-1.10;99.90
9385;DHT22;4732;49.340;10.886;2023-02-15T04:07:15;-0.90;99.90
9385;DHT22;4732;49.340;10.886;2023-02-15T04:09:40;-1.10;99.90
9385;DHT22;4732;49.340;10.886;2023-02-15T04:12:24;-0.80;99.90
9385;DHT22;4732;49.340;10.886;2023-02-15T04:14:50;-1.10;99.90
9385;DHT22;4732;49.340;10.886;2023-02-15T04:17:36;-0.90;99.90
9385;DHT22;4732;49.340;10.886;2023-02-15T04:20:02;-1.20;99.90
9385;DHT22;4732;49.340;10.886;2023-02-15T04:22:47;-1.00;99.90
9385;DHT22;4732;49.340;10.886;2023-02-15T04:25:31;-1.20;99.90
9385;DHT22;4732;49.340;10.886;2023-02-15T04:27:56;-1.30;99.90
9385;DHT22;4732;49.340;10.886;2023-02-15T11:06:07;1.30;99.90
9385;DHT22;4732;49.340;10.886;2023-02-15T11:08:46;1.30;99.90
9385;DHT22;4732;49.340;10.886;2023-02-15T11:11:21;1.30;99.90
9385;DHT22;4732;49.340;10.886;2023-02-15T12:45:03;4.00;99.90
9385;DHT22;4732;49.340;10.886;2023-02-15T12:47:30;4.30;99.90
9385;DHT22;4732;49.340;10.886;2023-02-15T12:50:11;4.40;99.90
9385;DHT22;4732;49.340;10.886;2023-02-15T12:52:43;4.60;99.90
9385;DHT22;4732;49.340;10.886;2023-02-15T12:55:26;4.60;99.90
9385;DHT22;4732;49.340;10.886;2023-02-15T13:01:16;5.40;99.90
9385;DHT22;4732;49.340;10.886;2023-02-15T13:04:01;5.40;99.90
9385;DHT22;4732;49.340;10.886;2023-02-15T13:06:46;5.50;99.90
9385;DHT22;4732;49.340;10.886;2023-02-15T13:10:18;5.90;99.90
9385;DHT22;4732;49.340;10.886;2023-02-15T13:18:02;6.20;99.90
9385;DHT22;4732;49.340;10.886;2023-02-15T13:20:36;6.20;99.90
9385;DHT22;4732;49.340;10.886;2023-02-15T13:26:23;6.20;99.90
9385;DHT22;4732;49.340;10.886;2023-02-15T13:29:15;7.00;99.90
9385;DHT22;4732;49.340;10.886;2023-02-15T13:31:52;6.60;99.90
9385;DHT22;4732;49.340;10.886;2023-02-15T13:34:40;7.40;99.90
9385;DHT22;4732;49.340;10.886;2023-02-15T13:40:40;7.50;99.90
9385;DHT22;4732;49.340;10.886;2023-02-15T13:43:26;7.00;99.90
9385;DHT22;4732;49.340;10.886;2023-02-15T13:49:25;6.50;99.90
9385;DHT22;4732;49.340;10.886;2023-02-15T13:52:35;6.00;99.90
9385;DHT22;4732;49.340;10.886;2023-02-15T14:10:38;5.30;99.90
9385;DHT22;4732;49.340;10.886;2023-02-15T14:13:21;5.20;99.90
9385;DHT22;4732;49.340;10.886;2023-02-15T14:16:03;5.10;99.90
9385;DHT22;4732;49.340;10.886;2023-02-15T14:27:20;5.20;99.90
9385;DHT22;4732;49.340;10.886;2023-02-15T14:29:57;5.20;99.90
9385;DHT22;4732;49.340;10.886;2023-02-15T14:34:56;4.70;99.90
9385;DHT22;4732;49.340;10.886;2023-02-15T14:40:34;5.10;99.90
9385;DHT22;4732;49.340;10.886;2023-02-15T14:43:51;5.10;99.90
9385;DHT22;4732;49.340;10.886;2023-02-15T14:49:35;5.20;99.90
9385;DHT22;4732;49.340;10.886;2023-02-15T14:52:04;5.10;99.90
9385;DHT22;4732;49.340;10.886;2023-02-15T14:59:27;5.00;99.90
9385;DHT22;4732;49.340;10.886;2023-02-15T15:02:16;5.10;99.90
9385;DHT22;4732;49.340;10.886;2023-02-15T15:05:06;5.10;99.90
9385;DHT22;4732;49.340;10.886;2023-02-15T15:07:52;5.10;99.90
9385;DHT22;4732;49.340;10.886;2023-02-15T15:12:56;4.80;99.90
9385;DHT22;4732;49.340;10.886;2023-02-15T15:18:03;4.90;99.90
9385;DHT22;4732;49.340;10.886;2023-02-15T15:20:49;5.00;99.90
9385;DHT22;4732;49.340;10.886;2023-02-15T15:25:46;4.80;99.90
9385;DHT22;4732;49.340;10.886;2023-02-15T15:34:51;4.80;99.90
9385;DHT22;4732;49.340;10.886;2023-02-15T15:51:02;4.50;99.90
9385;DHT22;4732;49.340;10.886;2023-02-15T15:53:34;4.60;99.90
9385;DHT22;4732;49.340;10.886;2023-02-15T15:56:08;4.20;99.90
9385;DHT22;4732;49.340;10.886;2023-02-15T15:58:36;4.50;99.90
9385;DHT22;4732;49.340;10.886;2023-02-15T16:01:11;4.30;99.90
9385;DHT22;4732;49.340;10.886;2023-02-15T16:03:49;4.20;99.90
9385;DHT22;4732;49.340;10.886;2023-02-15T16:06:36;4.20;99.90
9385;DHT22;4732;49.340;10.886;2023-02-15T16:09:23;4.10;99.90
9385;DHT22;4732;49.340;10.886;2023-02-15T16:11:57;4.10;99.90
9385;DHT22;4732;49.340;10.886;2023-02-15T16:16:56;4.00;99.90
9385;DHT22;4732;49.340;10.886;2023-02-15T16:19:26;3.80;99.90
9385;DHT22;4732;49.340;10.886;2023-02-15T16:21:52;3.90;99.90
9385;DHT22;4732;49.340;10.886;2023-02-15T16:27:34;3.50;99.90
9385;DHT22;4732;49.340;10.886;2023-02-15T16:30:20;3.30;99.90
9385;DHT22;4732;49.340;10.886;2023-02-15T16:32:46;3.50;99.90
9385;DHT22;4732;49.340;10.886;2023-02-15T16:35:17;2.90;99.90
9385;DHT22;4732;49.340;10.886;2023-02-15T16:37:43;2.90;99.90
9385;DHT22;4732;49.340;10.886;2023-02-15T16:43:06;2.80;99.90
9385;DHT22;4732;49.340;10.886;2023-02-15T16:45:35;3.00;99.90
9385;DHT22;4732;49.340;10.886;2023-02-15T16:48:07;2.70;99.90
9385;DHT22;4732;49.340;10.886;2023-02-15T16:50:36;2.50;99.90
9385;DHT22;4732;49.340;10.886;2023-02-15T16:53:04;2.40;99.90
9385;DHT22;4732;49.340;10.886;2023-02-15T16:55:37;2.30;99.90
9385;DHT22;4732;49.340;10.886;2023-02-15T16:58:06;2.50;99.90
9385;DHT22;4732;49.340;10.886;2023-02-15T17:00:35;2.10;99.90
9385;DHT22;4732;49.340;10.886;2023-02-15T17:03:19;2.00;99.90
9385;DHT22;4732;49.340;10.886;2023-02-15T17:05:48;1.90;99.90
9385;DHT22;4732;49.340;10.886;2023-02-15T17:08:27;1.70;99.90
9385;DHT22;4732;49.340;10.886;2023-02-15T17:11:10;1.70;99.90
9385;DHT22;4732;49.340;10.886;2023-02-15T17:13:37;1.80;99.90
9385;DHT22;4732;49.340;10.886;2023-02-15T17:18:55;2.00;99.90
9385;DHT22;4732;49.340;10.886;2023-02-15T17:21:27;1.50;99.90
9385;DHT22;4732;49.340;10.886;2023-02-15T17:24:00;1.50;99.90
9385;DHT22;4732;49.340;10.886;2023-02-15T17:26:31;1.30;99.90
9385;DHT22;4732;49.340;10.886;2023-02-15T17:29:00;1.30;99.90
9385;DHT22;4732;49.340;10.886;2023-02-15T17:31:31;1.20;99.90
9385;DHT22;4732;49.340;10.886;2023-02-15T17:34:00;1.20;99.90
9385;DHT22;4732;49.340;10.886;2023-02-15T17:36:28;1.20;99.90
9385;DHT22;4732;49.340;10.886;2023-02-15T17:41:28;0.90;99.90
9385;DHT22;4732;49.340;10.886;2023-02-15T17:43:54;1.40;99.90
9385;DHT22;4732;49.340;10.886;2023-02-15T17:46:20;0.70;99.90
9385;DHT22;4732;49.340;10.886;2023-02-15T17:48:53;0.80;99.90
9385;DHT22;4732;49.340;10.886;2023-02-15T17:51:20;0.60;99.90
9385;DHT22;4732;49.340;10.886;2023-02-15T17:53:47;0.80;99.90
9385;DHT22;4732;49.340;10.886;2023-02-15T17:56:32;1.00;99.90
9385;DHT22;4732;49.340;10.886;2023-02-15T17:58:58;0.70;99.90
9385;DHT22;4732;49.340;10.886;2023-02-15T18:01:23;0.60;99.90
9385;DHT22;4732;49.340;10.886;2023-02-15T18:04:10;0.70;99.90
9385;DHT22;4732;49.340;10.886;2023-02-15T18:06:55;0.50;99.90
9385;DHT22;4732;49.340;10.886;2023-02-15T18:09:39;0.80;99.90
9385;DHT22;4732;49.340;10.886;2023-02-15T18:14:51;0.50;99.90
9385;DHT22;4732;49.340;10.886;2023-02-15T18:17:19;0.50;99.90
9385;DHT22;4732;49.340;10.886;2023-02-15T18:19:46;0.40;99.90
9385;DHT22;4732;49.340;10.886;2023-02-15T18:22:15;1.10;99.90
9385;DHT22;4732;49.340;10.886;2023-02-15T18:24:41;0.40;99.90
9385;DHT22;4732;49.340;10.886;2023-02-15T18:27:07;0.50;99.90
9385;DHT22;4732;49.340;10.886;2023-02-15T18:29:32;0.60;99.90
9385;DHT22;4732;49.340;10.886;2023-02-15T18:31:59;0.50;99.90
9385;DHT22;4732;49.340;10.886;2023-02-15T18:34:31;0.40;99.90
9385;DHT22;4732;49.340;10.886;2023-02-15T18:36:59;0.30;99.90
9385;DHT22;4732;49.340;10.886;2023-02-15T18:52:04;0.30;99.90
9385;DHT22;4732;49.340;10.886;2023-02-15T18:54:29;0.10;99.90
9385;DHT22;4732;49.340;10.886;2023-02-15T18:56:57;0.20;99.90
9385;DHT22;4732;49.340;10.886;2023-02-15T18:59:25;0.00;99.90
9385;DHT22;4732;49.340;10.886;2023-02-15T19:01:52;0.20;99.90
9385;DHT22;4732;49.340;10.886;2023-02-15T19:04:17;0.20;99.90
9385;DHT22;4732;49.340;10.886;2023-02-15T19:06:47;0.10;99.90
9385;DHT22;4732;49.340;10.886;2023-02-15T19:09:16;0.00;99.90
9385;DHT22;4732;49.340;10.886;2023-02-15T19:11:47;-0.10;99.90
9385;DHT22;4732;49.340;10.886;2023-02-15T19:14:26;-0.20;99.90
9385;DHT22;4732;49.340;10.886;2023-02-15T19:16:52;-0.10;99.90
9385;DHT22;4732;49.340;10.886;2023-02-15T19:19:18;0.20;99.90
9385;DHT22;4732;49.340;10.886;2023-02-15T19:24:20;-0.20;99.90
9385;DHT22;4732;49.340;10.886;2023-02-15T19:26:47;0.00;99.90
9385;DHT22;4732;49.340;10.886;2023-02-15T19:34:15;-0.10;99.90
9385;DHT22;4732;49.340;10.886;2023-02-15T20:08:35;-0.60;99.90
9385;DHT22;4732;49.340;10.886;2023-02-15T20:11:01;-0.70;99.90
9385;DHT22;4732;49.340;10.886;2023-02-15T20:13:26;-0.60;99.90
9385;DHT22;4732;49.340;10.886;2023-02-15T20:15:53;-0.40;99.90
9385;DHT22;4732;49.340;10.886;2023-02-15T20:18:18;-0.60;99.90
9385;DHT22;4732;49.340;10.886;2023-02-15T20:20:49;-0.50;99.90
9385;DHT22;4732;49.340;10.886;2023-02-15T20:23:24;-0.60;99.90
9385;DHT22;4732;49.340;10.886;2023-02-15T20:25:50;-0.30;99.90
9385;DHT22;4732;49.340;10.886;2023-02-15T20:28:18;-0.60;99.90
9385;DHT22;4732;49.340;10.886;2023-02-15T20:30:44;-0.40;99.90
9385;DHT22;4732;49.340;10.886;2023-02-15T20:33:10;-0.50;99.90
9385;DHT22;4732;49.340;10.886;2023-02-15T20:35:36;-0.40;99.90
9385;DHT22;4732;49.340;10.886;2023-02-15T20:38:02;-0.70;99.90
9385;DHT22;4732;49.340;10.886;2023-02-15T20:40:31;-0.50;99.90
9385;DHT22;4732;49.340;10.886;2023-02-15T20:42:57;-0.20;99.90
9385;DHT22;4732;49.340;10.886;2023-02-15T20:45:32;-0.10;99.90
9385;DHT22;4732;49.340;10.886;2023-02-15T20:47:58;-0.20;99.90
9385;DHT22;4732;49.340;10.886;2023-02-15T20:50:29;-0.10;99.90
9385;DHT22;4732;49.340;10.886;2023-02-15T20:52:57;-0.50;99.90
9385;DHT22;4732;49.340;10.886;2023-02-15T20:55:25;-0.30;99.90
9385;DHT22;4732;49.340;10.886;2023-02-15T20:57:51;-0.70;99.90
9385;DHT22;4732;49.340;10.886;2023-02-15T21:00:20;-0.30;99.90
9385;DHT22;4732;49.340;10.886;2023-02-15T21:02:50;-0.10;99.90
9385;DHT22;4732;49.340;10.886;2023-02-15T21:05:27;0.00;99.90
9385;DHT22;4732;49.340;10.886;2023-02-15T21:07:54;-0.40;99.90
9385;DHT22;4732;49.340;10.886;2023-02-15T21:10:22;-0.10;99.90
9385;DHT22;4732;49.340;10.886;2023-02-15T21:12:50;-0.40;99.90
9385;DHT22;4732;49.340;10.886;2023-02-15T21:15:37;-0.30;99.90
9385;DHT22;4732;49.340;10.886;2023-02-15T21:18:09;-0.30;99.90
9385;DHT22;4732;49.340;10.886;2023-02-15T21:20:42;-0.50;99.90
9385;DHT22;4732;49.340;10.886;2023-02-15T21:23:10;-0.50;99.90
9385;DHT22;4732;49.340;10.886;2023-02-15T21:25:38;-0.60;99.90
9385;DHT22;4732;49.340;10.886;2023-02-15T21:28:04;-0.50;99.90
9385;DHT22;4732;49.340;10.886;2023-02-15T21:30:33;-0.50;99.90
9385;DHT22;4732;49.340;10.886;2023-02-15T21:32:58;-1.00;99.90
9385;DHT22;4732;49.340;10.886;2023-02-15T21:35:24;-0.60;99.90
9385;DHT22;4732;49.340;10.886;2023-02-15T21:37:51;-0.80;99.90
9385;DHT22;4732;49.340;10.886;2023-02-15T21:40:19;-0.70;99.90
9385;DHT22;4732;49.340;10.886;2023-02-15T21:42:46;-0.60;99.90
9385;DHT22;4732;49.340;10.886;2023-02-15T21:45:30;-0.60;99.90
9385;DHT22;4732;49.340;10.886;2023-02-15T21:48:14;-0.70;99.90
9385;DHT22;4732;49.340;10.886;2023-02-15T21:50:40;-0.90;99.90
9385;DHT22;4732;49.340;10.886;2023-02-15T21:53:28;-0.70;99.90
9385;DHT22;4732;49.340;10.886;2023-02-15T21:55:57;-0.80;99.90
9385;DHT22;4732;49.340;10.886;2023-02-15T21:58:25;-0.90;99.90
9385;DHT22;4732;49.340;10.886;2023-02-15T22:00:53;-0.80;99.90
9385;DHT22;4732;49.340;10.886;2023-02-15T22:03:23;-0.80;99.90
9385;DHT22;4732;49.340;10.886;2023-02-15T22:05:49;-0.80;99.90
9385;DHT22;4732;49.340;10.886;2023-02-15T22:08:15;-0.80;99.90
9385;DHT22;4732;49.340;10.886;2023-02-15T22:10:41;-0.90;99.90
9385;DHT22;4732;49.340;10.886;2023-02-15T22:18:22;-0.80;99.90
